sensor_id;sensor_type;location;lat;lon;timestamp;P1;durP1;ratioP1;P2;durP2;ratioP2
52043;SDS011;38053;53.100;6.078;2022-07-23T00:02:05;10.48;;;5.25;;
52043;SDS011;38053;53.100;6.078;2022-07-23T00:04:32;9.48;;;4.60;;
52043;SDS011;38053;53.100;6.078;2022-07-23T00:06:58;10.85;;;5.18;;
52043;SDS011;38053;53.100;6.078;2022-07-23T00:09:24;8.77;;;5.28;;
52043;SDS011;38053;53.100;6.078;2022-07-23T00:11:49;8.82;;;5.40;;
52043;SDS011;38053;53.100;6.078;2022-07-23T00:14:15;10.05;;;5.88;;
52043;SDS011;38053;53.100;6.078;2022-07-23T00:16:40;8.75;;;5.53;;
52043;SDS011;38053;53.100;6.078;2022-07-23T00:19:06;7.93;;;5.38;;
52043;SDS011;38053;53.100;6.078;2022-07-23T00:21:32;7.97;;;5.22;;
52043;SDS011;38053;53.100;6.078;2022-07-23T00:23:57;10.70;;;5.80;;
52043;SDS011;38053;53.100;6.078;2022-07-23T00:26:23;10.02;;;5.63;;
52043;SDS011;38053;53.100;6.078;2022-07-23T00:28:49;12.27;;;6.30;;
52043;SDS011;38053;53.100;6.078;2022-07-23T00:31:14;10.88;;;5.57;;
52043;SDS011;38053;53.100;6.078;2022-07-23T00:33:40;13.57;;;6.20;;
52043;SDS011;38053;53.100;6.078;2022-07-23T00:36:06;9.30;;;5.95;;
52043;SDS011;38053;53.100;6.078;2022-07-23T00:38:32;11.77;;;5.72;;
52043;SDS011;38053;53.100;6.078;2022-07-23T00:40:57;11.45;;;7.22;;
52043;SDS011;38053;53.100;6.078;2022-07-23T00:43:23;9.70;;;5.53;;
52043;SDS011;38053;53.100;6.078;2022-07-23T00:45:49;9.27;;;6.20;;
52043;SDS011;38053;53.100;6.078;2022-07-23T00:48:15;14.25;;;5.75;;
52043;SDS011;38053;53.100;6.078;2022-07-23T00:50:42;15.30;;;6.68;;
52043;SDS011;38053;53.100;6.078;2022-07-23T00:53:08;11.60;;;5.88;;
52043;SDS011;38053;53.100;6.078;2022-07-23T00:55:34;13.43;;;6.80;;
52043;SDS011;38053;53.100;6.078;2022-07-23T00:58:00;10.10;;;6.22;;
52043;SDS011;38053;53.100;6.078;2022-07-23T01:00:27;8.82;;;6.22;;
52043;SDS011;38053;53.100;6.078;2022-07-23T01:02:53;8.38;;;5.60;;
52043;SDS011;38053;53.100;6.078;2022-07-23T01:05:19;8.48;;;5.82;;
52043;SDS011;38053;53.100;6.078;2022-07-23T01:07:47;8.90;;;6.15;;
52043;SDS011;38053;53.100;6.078;2022-07-23T01:10:15;11.23;;;5.72;;
52043;SDS011;38053;53.100;6.078;2022-07-23T01:13:06;10.10;;;5.65;;
52043;SDS011;38053;53.100;6.078;2022-07-23T01:15:33;12.63;;;5.82;;
52043;SDS011;38053;53.100;6.078;2022-07-23T01:18:00;10.32;;;5.72;;
52043;SDS011;38053;53.100;6.078;2022-07-23T01:20:27;8.52;;;5.43;;
52043;SDS011;38053;53.100;6.078;2022-07-23T01:22:53;8.40;;;5.68;;
52043;SDS011;38053;53.100;6.078;2022-07-23T01:25:19;9.02;;;6.05;;
52043;SDS011;38053;53.100;6.078;2022-07-23T01:27:45;9.40;;;5.75;;
52043;SDS011;38053;53.100;6.078;2022-07-23T01:30:11;12.43;;;5.55;;
52043;SDS011;38053;53.100;6.078;2022-07-23T01:32:37;10.60;;;4.32;;
52043;SDS011;38053;53.100;6.078;2022-07-23T01:35:04;9.95;;;5.75;;
52043;SDS011;38053;53.100;6.078;2022-07-23T01:37:30;14.35;;;6.35;;
52043;SDS011;38053;53.100;6.078;2022-07-23T01:39:56;8.00;;;5.75;;
52043;SDS011;38053;53.100;6.078;2022-07-23T01:42:22;8.13;;;5.55;;
52043;SDS011;38053;53.100;6.078;2022-07-23T01:44:48;10.10;;;5.40;;
52043;SDS011;38053;53.100;6.078;2022-07-23T01:47:14;10.57;;;5.40;;
52043;SDS011;38053;53.100;6.078;2022-07-23T01:49:40;12.40;;;6.10;;
52043;SDS011;38053;53.100;6.078;2022-07-23T01:52:06;8.63;;;5.57;;
52043;SDS011;38053;53.100;6.078;2022-07-23T01:54:35;8.75;;;5.65;;
52043;SDS011;38053;53.100;6.078;2022-07-23T01:57:02;13.27;;;7.60;;
52043;SDS011;38053;53.100;6.078;2022-07-23T01:59:28;8.05;;;5.38;;
52043;SDS011;38053;53.100;6.078;2022-07-23T02:01:55;9.15;;;4.88;;
52043;SDS011;38053;53.100;6.078;2022-07-23T02:04:21;9.07;;;4.60;;
52043;SDS011;38053;53.100;6.078;2022-07-23T02:06:48;8.60;;;5.35;;
52043;SDS011;38053;53.100;6.078;2022-07-23T02:09:14;13.32;;;7.38;;
52043;SDS011;38053;53.100;6.078;2022-07-23T02:11:40;11.80;;;5.95;;
52043;SDS011;38053;53.100;6.078;2022-07-23T02:14:06;12.52;;;5.95;;
52043;SDS011;38053;53.100;6.078;2022-07-23T02:16:32;8.65;;;5.78;;
52043;SDS011;38053;53.100;6.078;2022-07-23T02:18:58;15.02;;;6.22;;
52043;SDS011;38053;53.100;6.078;2022-07-23T02:21:23;10.52;;;6.07;;
52043;SDS011;38053;53.100;6.078;2022-07-23T02:23:49;10.18;;;5.88;;
52043;SDS011;38053;53.100;6.078;2022-07-23T02:26:15;17.35;;;6.97;;
52043;SDS011;38053;53.100;6.078;2022-07-23T02:28:40;12.45;;;6.72;;
52043;SDS011;38053;53.100;6.078;2022-07-23T02:31:06;13.32;;;6.38;;
52043;SDS011;38053;53.100;6.078;2022-07-23T02:33:32;11.02;;;6.72;;
52043;SDS011;38053;53.100;6.078;2022-07-23T02:35:59;10.60;;;6.68;;
52043;SDS011;38053;53.100;6.078;2022-07-23T02:38:25;11.07;;;6.28;;
52043;SDS011;38053;53.100;6.078;2022-07-23T02:40:50;10.45;;;6.47;;
52043;SDS011;38053;53.100;6.078;2022-07-23T02:43:16;9.15;;;5.65;;
52043;SDS011;38053;53.100;6.078;2022-07-23T02:45:42;11.88;;;6.00;;
52043;SDS011;38053;53.100;6.078;2022-07-23T02:48:07;11.57;;;7.20;;
52043;SDS011;38053;53.100;6.078;2022-07-23T02:50:33;9.88;;;6.50;;
52043;SDS011;38053;53.100;6.078;2022-07-23T02:52:59;9.43;;;6.05;;
52043;SDS011;38053;53.100;6.078;2022-07-23T02:55:24;11.35;;;6.72;;
52043;SDS011;38053;53.100;6.078;2022-07-23T02:57:50;9.80;;;5.82;;
52043;SDS011;38053;53.100;6.078;2022-07-23T03:00:16;17.90;;;6.72;;
52043;SDS011;38053;53.100;6.078;2022-07-23T03:02:41;11.55;;;6.20;;
52043;SDS011;38053;53.100;6.078;2022-07-23T03:05:07;15.75;;;7.03;;
52043;SDS011;38053;53.100;6.078;2022-07-23T03:07:33;11.10;;;5.72;;
52043;SDS011;38053;53.100;6.078;2022-07-23T03:09:59;12.32;;;7.13;;
52043;SDS011;38053;53.100;6.078;2022-07-23T03:12:24;10.27;;;7.18;;
52043;SDS011;38053;53.100;6.078;2022-07-23T03:14:50;13.48;;;6.32;;
52043;SDS011;38053;53.100;6.078;2022-07-23T03:17:16;15.60;;;7.18;;
52043;SDS011;38053;53.100;6.078;2022-07-23T03:19:42;8.75;;;5.85;;
52043;SDS011;38053;53.100;6.078;2022-07-23T03:22:08;10.35;;;7.00;;
52043;SDS011;38053;53.100;6.078;2022-07-23T03:24:33;9.35;;;6.18;;
52043;SDS011;38053;53.100;6.078;2022-07-23T03:27:17;11.35;;;6.15;;
52043;SDS011;38053;53.100;6.078;2022-07-23T03:29:43;12.30;;;6.20;;
52043;SDS011;38053;53.100;6.078;2022-07-23T03:32:09;11.68;;;6.70;;
52043;SDS011;38053;53.100;6.078;2022-07-23T03:34:34;10.82;;;6.00;;
52043;SDS011;38053;53.100;6.078;2022-07-23T03:37:00;12.13;;;6.07;;
52043;SDS011;38053;53.100;6.078;2022-07-23T03:39:26;11.90;;;6.25;;
52043;SDS011;38053;53.100;6.078;2022-07-23T03:41:52;11.13;;;6.05;;
52043;SDS011;38053;53.100;6.078;2022-07-23T03:44:17;10.35;;;6.30;;
52043;SDS011;38053;53.100;6.078;2022-07-23T03:46:43;12.27;;;6.18;;
52043;SDS011;38053;53.100;6.078;2022-07-23T03:49:08;11.93;;;7.03;;
52043;SDS011;38053;53.100;6.078;2022-07-23T03:51:34;14.25;;;6.40;;
52043;SDS011;38053;53.100;6.078;2022-07-23T03:54:00;14.65;;;6.28;;
52043;SDS011;38053;53.100;6.078;2022-07-23T03:56:26;16.65;;;7.03;;
52043;SDS011;38053;53.100;6.078;2022-07-23T03:58:51;14.43;;;6.90;;
52043;SDS011;38053;53.100;6.078;2022-07-23T04:01:17;10.05;;;6.85;;
52043;SDS011;38053;53.100;6.078;2022-07-23T04:03:43;13.13;;;7.03;;
52043;SDS011;38053;53.100;6.078;2022-07-23T04:06:08;10.88;;;6.85;;
52043;SDS011;38053;53.100;6.078;2022-07-23T04:08:34;9.63;;;6.30;;
52043;SDS011;38053;53.100;6.078;2022-07-23T04:11:00;11.10;;;6.35;;
52043;SDS011;38053;53.100;6.078;2022-07-23T04:13:25;12.18;;;6.43;;
52043;SDS011;38053;53.100;6.078;2022-07-23T04:15:51;12.75;;;6.85;;
52043;SDS011;38053;53.100;6.078;2022-07-23T04:18:17;10.98;;;5.68;;
52043;SDS011;38053;53.100;6.078;2022-07-23T04:20:43;10.10;;;6.28;;
52043;SDS011;38053;53.100;6.078;2022-07-23T04:23:10;9.65;;;6.32;;
52043;SDS011;38053;53.100;6.078;2022-07-23T04:25:35;10.52;;;6.53;;
52043;SDS011;38053;53.100;6.078;2022-07-23T04:28:01;12.23;;;5.97;;
52043;SDS011;38053;53.100;6.078;2022-07-23T04:30:27;10.68;;;5.80;;
52043;SDS011;38053;53.100;6.078;2022-07-23T04:32:52;13.32;;;5.72;;
52043;SDS011;38053;53.100;6.078;2022-07-23T04:35:18;13.43;;;6.53;;
52043;SDS011;38053;53.100;6.078;2022-07-23T04:37:44;9.30;;;6.05;;
52043;SDS011;38053;53.100;6.078;2022-07-23T04:40:10;12.60;;;5.70;;
52043;SDS011;38053;53.100;6.078;2022-07-23T04:42:37;11.73;;;5.65;;
52043;SDS011;38053;53.100;6.078;2022-07-23T04:45:02;8.93;;;5.70;;
52043;SDS011;38053;53.100;6.078;2022-07-23T04:47:29;13.60;;;6.32;;
52043;SDS011;38053;53.100;6.078;2022-07-23T04:49:55;10.02;;;6.20;;
52043;SDS011;38053;53.100;6.078;2022-07-23T04:52:21;9.57;;;6.70;;
52043;SDS011;38053;53.100;6.078;2022-07-23T04:54:47;11.85;;;6.45;;
52043;SDS011;38053;53.100;6.078;2022-07-23T04:57:13;10.45;;;6.25;;
52043;SDS011;38053;53.100;6.078;2022-07-23T04:59:39;9.27;;;6.25;;
52043;SDS011;38053;53.100;6.078;2022-07-23T05:02:05;12.77;;;6.43;;
52043;SDS011;38053;53.100;6.078;2022-07-23T05:04:30;9.68;;;6.10;;
52043;SDS011;38053;53.100;6.078;2022-07-23T05:06:56;11.00;;;6.78;;
52043;SDS011;38053;53.100;6.078;2022-07-23T05:09:22;10.90;;;6.13;;
52043;SDS011;38053;53.100;6.078;2022-07-23T05:11:48;9.20;;;5.88;;
52043;SDS011;38053;53.100;6.078;2022-07-23T05:14:14;8.75;;;5.90;;
52043;SDS011;38053;53.100;6.078;2022-07-23T05:16:40;14.85;;;5.82;;
52043;SDS011;38053;53.100;6.078;2022-07-23T05:19:06;11.32;;;5.93;;
52043;SDS011;38053;53.100;6.078;2022-07-23T05:21:32;10.30;;;6.53;;
52043;SDS011;38053;53.100;6.078;2022-07-23T05:23:58;12.55;;;6.68;;
52043;SDS011;38053;53.100;6.078;2022-07-23T05:26:24;13.70;;;6.05;;
52043;SDS011;38053;53.100;6.078;2022-07-23T05:28:50;12.95;;;6.60;;
52043;SDS011;38053;53.100;6.078;2022-07-23T05:31:16;11.30;;;5.43;;
52043;SDS011;38053;53.100;6.078;2022-07-23T05:33:42;9.27;;;5.63;;
52043;SDS011;38053;53.100;6.078;2022-07-23T05:36:08;7.13;;;5.35;;
52043;SDS011;38053;53.100;6.078;2022-07-23T05:38:34;10.70;;;5.80;;
52043;SDS011;38053;53.100;6.078;2022-07-23T05:41:00;9.90;;;5.90;;
52043;SDS011;38053;53.100;6.078;2022-07-23T05:43:26;13.02;;;6.00;;
52043;SDS011;38053;53.100;6.078;2022-07-23T05:45:52;7.82;;;4.80;;
52043;SDS011;38053;53.100;6.078;2022-07-23T05:48:18;8.20;;;4.95;;
52043;SDS011;38053;53.100;6.078;2022-07-23T05:50:44;11.63;;;5.22;;
52043;SDS011;38053;53.100;6.078;2022-07-23T05:53:10;11.73;;;4.55;;
52043;SDS011;38053;53.100;6.078;2022-07-23T05:55:36;8.80;;;4.13;;
52043;SDS011;38053;53.100;6.078;2022-07-23T05:58:02;12.25;;;3.47;;
52043;SDS011;38053;53.100;6.078;2022-07-23T06:00:28;7.22;;;2.92;;
52043;SDS011;38053;53.100;6.078;2022-07-23T06:02:54;8.88;;;3.50;;
52043;SDS011;38053;53.100;6.078;2022-07-23T06:05:20;7.90;;;3.20;;
52043;SDS011;38053;53.100;6.078;2022-07-23T06:07:49;7.35;;;2.88;;
52043;SDS011;38053;53.100;6.078;2022-07-23T06:10:15;6.95;;;2.30;;
52043;SDS011;38053;53.100;6.078;2022-07-23T06:12:41;9.07;;;2.25;;
52043;SDS011;38053;53.100;6.078;2022-07-23T06:15:07;4.20;;;1.88;;
52043;SDS011;38053;53.100;6.078;2022-07-23T06:17:37;2.97;;;2.03;;
52043;SDS011;38053;53.100;6.078;2022-07-23T06:20:09;3.47;;;1.80;;
52043;SDS011;38053;53.100;6.078;2022-07-23T06:22:38;3.92;;;2.03;;
52043;SDS011;38053;53.100;6.078;2022-07-23T06:25:04;6.03;;;1.83;;
52043;SDS011;38053;53.100;6.078;2022-07-23T06:27:31;6.10;;;1.80;;
52043;SDS011;38053;53.100;6.078;2022-07-23T06:29:56;5.05;;;1.90;;
52043;SDS011;38053;53.100;6.078;2022-07-23T06:32:22;3.00;;;1.42;;
52043;SDS011;38053;53.100;6.078;2022-07-23T06:34:51;2.95;;;1.40;;
52043;SDS011;38053;53.100;6.078;2022-07-23T06:37:20;4.03;;;1.58;;
52043;SDS011;38053;53.100;6.078;2022-07-23T06:39:46;3.45;;;1.60;;
52043;SDS011;38053;53.100;6.078;2022-07-23T06:42:14;5.70;;;2.08;;
52043;SDS011;38053;53.100;6.078;2022-07-23T06:44:43;2.90;;;1.45;;
52043;SDS011;38053;53.100;6.078;2022-07-23T06:47:09;3.10;;;1.20;;
52043;SDS011;38053;53.100;6.078;2022-07-23T06:49:35;3.63;;;1.40;;
52043;SDS011;38053;53.100;6.078;2022-07-23T06:52:02;6.05;;;1.20;;
52043;SDS011;38053;53.100;6.078;2022-07-23T06:54:30;4.00;;;1.38;;
52043;SDS011;38053;53.100;6.078;2022-07-23T06:56:59;5.68;;;1.27;;
52043;SDS011;38053;53.100;6.078;2022-07-23T06:59:25;2.80;;;0.80;;
52043;SDS011;38053;53.100;6.078;2022-07-23T07:01:55;2.78;;;0.68;;
52043;SDS011;38053;53.100;6.078;2022-07-23T07:04:22;2.50;;;0.70;;
52043;SDS011;38053;53.100;6.078;2022-07-23T07:06:48;1.10;;;0.60;;
52043;SDS011;38053;53.100;6.078;2022-07-23T07:09:14;2.47;;;0.60;;
52043;SDS011;38053;53.100;6.078;2022-07-23T07:11:43;1.63;;;0.73;;
52043;SDS011;38053;53.100;6.078;2022-07-23T07:14:15;3.22;;;0.68;;
52043;SDS011;38053;53.100;6.078;2022-07-23T07:16:43;1.65;;;0.70;;
52043;SDS011;38053;53.100;6.078;2022-07-23T07:19:12;7.13;;;0.80;;
52043;SDS011;38053;53.100;6.078;2022-07-23T07:21:39;1.77;;;0.70;;
52043;SDS011;38053;53.100;6.078;2022-07-23T07:24:07;1.75;;;0.60;;
52043;SDS011;38053;53.100;6.078;2022-07-23T07:26:33;1.58;;;0.70;;
52043;SDS011;38053;53.100;6.078;2022-07-23T07:29:03;6.45;;;1.02;;
52043;SDS011;38053;53.100;6.078;2022-07-23T07:31:29;5.85;;;0.60;;
52043;SDS011;38053;53.100;6.078;2022-07-23T07:33:55;1.17;;;0.50;;
52043;SDS011;38053;53.100;6.078;2022-07-23T07:36:22;2.00;;;0.63;;
52043;SDS011;38053;53.100;6.078;2022-07-23T07:38:52;0.98;;;0.50;;
52043;SDS011;38053;53.100;6.078;2022-07-23T07:41:18;1.20;;;0.55;;
52043;SDS011;38053;53.100;6.078;2022-07-23T07:43:52;3.75;;;0.70;;
52043;SDS011;38053;53.100;6.078;2022-07-23T07:46:20;0.80;;;0.50;;
52043;SDS011;38053;53.100;6.078;2022-07-23T07:48:52;3.63;;;0.40;;
52043;SDS011;38053;53.100;6.078;2022-07-23T07:51:20;2.75;;;0.50;;
52043;SDS011;38053;53.100;6.078;2022-07-23T07:53:46;3.25;;;0.68;;
52043;SDS011;38053;53.100;6.078;2022-07-23T07:56:18;1.25;;;0.50;;
52043;SDS011;38053;53.100;6.078;2022-07-23T07:58:45;1.63;;;0.40;;
52043;SDS011;38053;53.100;6.078;2022-07-23T08:01:11;1.33;;;0.45;;
52043;SDS011;38053;53.100;6.078;2022-07-23T08:03:46;3.70;;;0.60;;
52043;SDS011;38053;53.100;6.078;2022-07-23T08:06:19;1.63;;;0.50;;
52043;SDS011;38053;53.100;6.078;2022-07-23T08:08:52;0.95;;;0.55;;
52043;SDS011;38053;53.100;6.078;2022-07-23T08:11:22;3.92;;;1.10;;
52043;SDS011;38053;53.100;6.078;2022-07-23T08:13:57;3.03;;;0.75;;
52043;SDS011;38053;53.100;6.078;2022-07-23T08:16:23;2.17;;;0.50;;
52043;SDS011;38053;53.100;6.078;2022-07-23T08:18:50;1.80;;;0.73;;
52043;SDS011;38053;53.100;6.078;2022-07-23T08:21:17;2.05;;;0.73;;
52043;SDS011;38053;53.100;6.078;2022-07-23T08:23:46;4.82;;;0.60;;
52043;SDS011;38053;53.100;6.078;2022-07-23T08:26:19;1.33;;;0.63;;
52043;SDS011;38053;53.100;6.078;2022-07-23T08:28:46;1.83;;;0.60;;
52043;SDS011;38053;53.100;6.078;2022-07-23T08:33:44;1.25;;;0.40;;
52043;SDS011;38053;53.100;6.078;2022-07-23T08:36:23;3.28;;;0.73;;
52043;SDS011;38053;53.100;6.078;2022-07-23T08:38:58;3.08;;;0.77;;
52043;SDS011;38053;53.100;6.078;2022-07-23T08:41:29;1.33;;;0.65;;
52043;SDS011;38053;53.100;6.078;2022-07-23T08:44:02;1.67;;;0.55;;
52043;SDS011;38053;53.100;6.078;2022-07-23T08:46:31;2.25;;;0.85;;
52043;SDS011;38053;53.100;6.078;2022-07-23T08:49:05;3.30;;;1.20;;
52043;SDS011;38053;53.100;6.078;2022-07-23T08:51:41;1.80;;;0.70;;
52043;SDS011;38053;53.100;6.078;2022-07-23T08:54:10;3.15;;;1.65;;
52043;SDS011;38053;53.100;6.078;2022-07-23T08:56:41;3.28;;;0.50;;
52043;SDS011;38053;53.100;6.078;2022-07-23T08:59:09;4.35;;;0.82;;
52043;SDS011;38053;53.100;6.078;2022-07-23T09:01:39;1.98;;;0.73;;
52043;SDS011;38053;53.100;6.078;2022-07-23T09:04:09;2.47;;;1.20;;
52043;SDS011;38053;53.100;6.078;2022-07-23T09:06:38;4.07;;;0.65;;
52043;SDS011;38053;53.100;6.078;2022-07-23T09:09:21;3.70;;;0.70;;
52043;SDS011;38053;53.100;6.078;2022-07-23T09:12:05;1.77;;;0.70;;
52043;SDS011;38053;53.100;6.078;2022-07-23T09:14:41;4.05;;;0.60;;
52043;SDS011;38053;53.100;6.078;2022-07-23T09:17:26;3.67;;;0.80;;
52043;SDS011;38053;53.100;6.078;2022-07-23T09:20:02;1.00;;;0.50;;
52043;SDS011;38053;53.100;6.078;2022-07-23T09:22:39;1.98;;;0.60;;
52043;SDS011;38053;53.100;6.078;2022-07-23T09:27:56;1.42;;;0.60;;
52043;SDS011;38053;53.100;6.078;2022-07-23T09:30:29;0.70;;;0.60;;
52043;SDS011;38053;53.100;6.078;2022-07-23T09:35:48;1.05;;;0.70;;
52043;SDS011;38053;53.100;6.078;2022-07-23T09:38:28;1.08;;;0.50;;
52043;SDS011;38053;53.100;6.078;2022-07-23T09:41:10;2.25;;;0.77;;
52043;SDS011;38053;53.100;6.078;2022-07-23T09:43:38;3.20;;;0.63;;
52043;SDS011;38053;53.100;6.078;2022-07-23T09:48:56;1.70;;;0.65;;
52043;SDS011;38053;53.100;6.078;2022-07-23T09:51:30;3.58;;;0.85;;
52043;SDS011;38053;53.100;6.078;2022-07-23T09:54:01;1.55;;;0.60;;
52043;SDS011;38053;53.100;6.078;2022-07-23T09:56:38;2.38;;;0.70;;
52043;SDS011;38053;53.100;6.078;2022-07-23T09:59:05;3.00;;;0.98;;
52043;SDS011;38053;53.100;6.078;2022-07-23T10:01:42;2.45;;;0.80;;
52043;SDS011;38053;53.100;6.078;2022-07-23T10:04:10;2.25;;;1.05;;
52043;SDS011;38053;53.100;6.078;2022-07-23T10:06:37;6.00;;;0.98;;
52043;SDS011;38053;53.100;6.078;2022-07-23T10:09:08;3.95;;;0.93;;
52043;SDS011;38053;53.100;6.078;2022-07-23T10:14:04;3.40;;;1.15;;
52043;SDS011;38053;53.100;6.078;2022-07-23T10:16:31;2.65;;;1.13;;
52043;SDS011;38053;53.100;6.078;2022-07-23T10:18:57;3.78;;;1.17;;
52043;SDS011;38053;53.100;6.078;2022-07-23T10:24:17;3.40;;;1.00;;
52043;SDS011;38053;53.100;6.078;2022-07-23T10:37:51;4.05;;;1.10;;
52043;SDS011;38053;53.100;6.078;2022-07-23T10:40:21;2.08;;;1.02;;
52043;SDS011;38053;53.100;6.078;2022-07-23T10:42:52;4.97;;;0.80;;
52043;SDS011;38053;53.100;6.078;2022-07-23T10:45:32;1.92;;;0.90;;
52043;SDS011;38053;53.100;6.078;2022-07-23T10:50:38;3.63;;;1.10;;
52043;SDS011;38053;53.100;6.078;2022-07-23T10:53:15;2.78;;;1.05;;
52043;SDS011;38053;53.100;6.078;2022-07-23T10:55:46;5.60;;;1.38;;
52043;SDS011;38053;53.100;6.078;2022-07-23T10:58:46;2.38;;;1.10;;
52043;SDS011;38053;53.100;6.078;2022-07-23T11:04:01;3.83;;;1.55;;
52043;SDS011;38053;53.100;6.078;2022-07-23T11:15:06;4.25;;;1.15;;
52043;SDS011;38053;53.100;6.078;2022-07-23T11:20:20;1.50;;;0.85;;
52043;SDS011;38053;53.100;6.078;2022-07-23T11:27:55;8.07;;;1.30;;
52043;SDS011;38053;53.100;6.078;2022-07-23T11:35:33;4.22;;;1.30;;
52043;SDS011;38053;53.100;6.078;2022-07-23T11:38:07;3.67;;;1.42;;
52043;SDS011;38053;53.100;6.078;2022-07-23T11:40:41;2.92;;;1.35;;
52043;SDS011;38053;53.100;6.078;2022-07-23T11:43:10;4.32;;;1.20;;
52043;SDS011;38053;53.100;6.078;2022-07-23T11:48:02;4.45;;;1.60;;
52043;SDS011;38053;53.100;6.078;2022-07-23T11:50:43;2.25;;;0.95;;
52043;SDS011;38053;53.100;6.078;2022-07-23T11:53:12;2.75;;;1.58;;
52043;SDS011;38053;53.100;6.078;2022-07-23T11:55:38;5.20;;;1.25;;
52043;SDS011;38053;53.100;6.078;2022-07-23T11:58:04;2.35;;;0.98;;
52043;SDS011;38053;53.100;6.078;2022-07-23T12:00:30;4.78;;;1.20;;
52043;SDS011;38053;53.100;6.078;2022-07-23T12:02:57;2.35;;;0.98;;
52043;SDS011;38053;53.100;6.078;2022-07-23T12:05:28;3.20;;;1.17;;
52043;SDS011;38053;53.100;6.078;2022-07-23T12:07:56;4.88;;;1.38;;
52043;SDS011;38053;53.100;6.078;2022-07-23T12:10:27;4.55;;;1.08;;
52043;SDS011;38053;53.100;6.078;2022-07-23T12:12:54;1.77;;;0.90;;
52043;SDS011;38053;53.100;6.078;2022-07-23T12:15:22;3.13;;;1.27;;
52043;SDS011;38053;53.100;6.078;2022-07-23T12:17:51;6.28;;;1.00;;
52043;SDS011;38053;53.100;6.078;2022-07-23T12:20:23;7.03;;;1.65;;
52043;SDS011;38053;53.100;6.078;2022-07-23T12:23:00;2.13;;;1.05;;
52043;SDS011;38053;53.100;6.078;2022-07-23T12:25:28;4.95;;;1.50;;
52043;SDS011;38053;53.100;6.078;2022-07-23T12:28:03;2.90;;;1.27;;
52043;SDS011;38053;53.100;6.078;2022-07-23T12:33:40;3.67;;;1.13;;
52043;SDS011;38053;53.100;6.078;2022-07-23T12:36:07;4.28;;;1.80;;
52043;SDS011;38053;53.100;6.078;2022-07-23T12:38:46;6.05;;;1.63;;
52043;SDS011;38053;53.100;6.078;2022-07-23T12:41:16;4.68;;;1.20;;
52043;SDS011;38053;53.100;6.078;2022-07-23T12:43:42;3.85;;;1.40;;
52043;SDS011;38053;53.100;6.078;2022-07-23T12:46:17;2.90;;;1.05;;
52043;SDS011;38053;53.100;6.078;2022-07-23T12:51:20;5.53;;;1.40;;
52043;SDS011;38053;53.100;6.078;2022-07-23T12:53:52;2.78;;;1.30;;
52043;SDS011;38053;53.100;6.078;2022-07-23T12:56:21;4.00;;;0.93;;
52043;SDS011;38053;53.100;6.078;2022-07-23T12:58:56;3.78;;;1.30;;
52043;SDS011;38053;53.100;6.078;2022-07-23T13:01:29;2.55;;;1.10;;
52043;SDS011;38053;53.100;6.078;2022-07-23T13:04:14;2.35;;;1.45;;
52043;SDS011;38053;53.100;6.078;2022-07-23T13:06:55;4.72;;;1.30;;
52043;SDS011;38053;53.100;6.078;2022-07-23T13:09:27;3.67;;;1.47;;
52043;SDS011;38053;53.100;6.078;2022-07-23T13:11:54;3.22;;;1.20;;
52043;SDS011;38053;53.100;6.078;2022-07-23T13:14:21;2.10;;;1.10;;
52043;SDS011;38053;53.100;6.078;2022-07-23T13:16:48;4.25;;;1.35;;
52043;SDS011;38053;53.100;6.078;2022-07-23T13:19:18;3.58;;;1.90;;
52043;SDS011;38053;53.100;6.078;2022-07-23T13:21:44;3.53;;;2.05;;
52043;SDS011;38053;53.100;6.078;2022-07-23T13:24:11;3.75;;;1.55;;
52043;SDS011;38053;53.100;6.078;2022-07-23T13:26:37;3.97;;;1.30;;
52043;SDS011;38053;53.100;6.078;2022-07-23T13:29:04;3.78;;;1.50;;
52043;SDS011;38053;53.100;6.078;2022-07-23T13:31:30;4.82;;;1.45;;
52043;SDS011;38053;53.100;6.078;2022-07-23T13:33:56;4.05;;;1.35;;
52043;SDS011;38053;53.100;6.078;2022-07-23T13:36:21;4.60;;;2.10;;
52043;SDS011;38053;53.100;6.078;2022-07-23T13:38:47;5.28;;;1.40;;
52043;SDS011;38053;53.100;6.078;2022-07-23T13:41:13;4.63;;;1.42;;
52043;SDS011;38053;53.100;6.078;2022-07-23T13:43:41;3.00;;;1.20;;
52043;SDS011;38053;53.100;6.078;2022-07-23T13:46:10;3.08;;;1.40;;
52043;SDS011;38053;53.100;6.078;2022-07-23T13:48:36;3.45;;;1.17;;
52043;SDS011;38053;53.100;6.078;2022-07-23T13:51:02;2.08;;;1.23;;
52043;SDS011;38053;53.100;6.078;2022-07-23T13:53:31;1.90;;;1.35;;
52043;SDS011;38053;53.100;6.078;2022-07-23T13:56:33;4.50;;;1.10;;
52043;SDS011;38053;53.100;6.078;2022-07-23T13:58:59;3.10;;;1.42;;
52043;SDS011;38053;53.100;6.078;2022-07-23T14:01:25;3.45;;;1.90;;
52043;SDS011;38053;53.100;6.078;2022-07-23T14:03:51;2.33;;;0.98;;
52043;SDS011;38053;53.100;6.078;2022-07-23T14:06:16;2.67;;;1.40;;
52043;SDS011;38053;53.100;6.078;2022-07-23T14:08:43;3.55;;;1.58;;
52043;SDS011;38053;53.100;6.078;2022-07-23T14:11:09;4.18;;;1.20;;
52043;SDS011;38053;53.100;6.078;2022-07-23T14:13:37;5.85;;;1.38;;
52043;SDS011;38053;53.100;6.078;2022-07-23T14:16:08;2.58;;;1.33;;
52043;SDS011;38053;53.100;6.078;2022-07-23T14:18:34;3.35;;;1.30;;
52043;SDS011;38053;53.100;6.078;2022-07-23T14:20:59;3.25;;;1.27;;
52043;SDS011;38053;53.100;6.078;2022-07-23T14:23:25;2.35;;;1.40;;
52043;SDS011;38053;53.100;6.078;2022-07-23T14:25:51;2.60;;;1.10;;
52043;SDS011;38053;53.100;6.078;2022-07-23T14:28:17;4.72;;;1.65;;
52043;SDS011;38053;53.100;6.078;2022-07-23T14:30:42;2.17;;;1.33;;
52043;SDS011;38053;53.100;6.078;2022-07-23T14:33:08;2.58;;;1.05;;
52043;SDS011;38053;53.100;6.078;2022-07-23T14:35:34;4.43;;;2.50;;
52043;SDS011;38053;53.100;6.078;2022-07-23T14:38:00;3.90;;;1.55;;
52043;SDS011;38053;53.100;6.078;2022-07-23T14:40:26;4.25;;;1.40;;
52043;SDS011;38053;53.100;6.078;2022-07-23T14:42:51;5.45;;;1.58;;
52043;SDS011;38053;53.100;6.078;2022-07-23T14:45:17;4.30;;;1.50;;
52043;SDS011;38053;53.100;6.078;2022-07-23T14:47:46;4.03;;;1.48;;
52043;SDS011;38053;53.100;6.078;2022-07-23T14:50:12;6.85;;;1.52;;
52043;SDS011;38053;53.100;6.078;2022-07-23T14:52:38;3.35;;;1.42;;
52043;SDS011;38053;53.100;6.078;2022-07-23T14:55:04;7.57;;;1.77;;
52043;SDS011;38053;53.100;6.078;2022-07-23T14:57:30;4.13;;;1.58;;
52043;SDS011;38053;53.100;6.078;2022-07-23T14:59:56;4.38;;;1.38;;
52043;SDS011;38053;53.100;6.078;2022-07-23T15:02:25;2.63;;;1.38;;
52043;SDS011;38053;53.100;6.078;2022-07-23T15:04:51;3.75;;;1.83;;
52043;SDS011;38053;53.100;6.078;2022-07-23T15:07:17;4.38;;;1.65;;
52043;SDS011;38053;53.100;6.078;2022-07-23T15:09:45;3.03;;;1.50;;
52043;SDS011;38053;53.100;6.078;2022-07-23T15:12:10;4.47;;;1.70;;
52043;SDS011;38053;53.100;6.078;2022-07-23T15:14:36;3.30;;;1.60;;
52043;SDS011;38053;53.100;6.078;2022-07-23T15:17:02;3.60;;;1.58;;
52043;SDS011;38053;53.100;6.078;2022-07-23T15:19:27;5.15;;;1.77;;
52043;SDS011;38053;53.100;6.078;2022-07-23T15:21:53;3.55;;;1.63;;
52043;SDS011;38053;53.100;6.078;2022-07-23T15:24:19;2.78;;;1.67;;
52043;SDS011;38053;53.100;6.078;2022-07-23T15:26:44;4.75;;;1.50;;
52043;SDS011;38053;53.100;6.078;2022-07-23T15:29:10;6.88;;;1.55;;
52043;SDS011;38053;53.100;6.078;2022-07-23T15:31:36;6.18;;;1.65;;
52043;SDS011;38053;53.100;6.078;2022-07-23T15:34:01;5.07;;;2.38;;
52043;SDS011;38053;53.100;6.078;2022-07-23T15:36:27;4.80;;;1.73;;
52043;SDS011;38053;53.100;6.078;2022-07-23T15:38:53;6.85;;;1.73;;
52043;SDS011;38053;53.100;6.078;2022-07-23T15:41:18;6.50;;;1.90;;
52043;SDS011;38053;53.100;6.078;2022-07-23T15:43:44;5.50;;;1.90;;
52043;SDS011;38053;53.100;6.078;2022-07-23T15:46:10;7.45;;;1.75;;
52043;SDS011;38053;53.100;6.078;2022-07-23T15:48:36;5.68;;;1.90;;
52043;SDS011;38053;53.100;6.078;2022-07-23T15:51:03;3.03;;;1.55;;